createdAt,value
2022-12-26T00:04:48.720Z,9.40
2022-12-26T00:09:54.018Z,9.32
2022-12-26T00:14:54.773Z,9.35
2022-12-26T00:19:55.681Z,9.34
2022-12-26T00:24:56.435Z,9.45
2022-12-26T00:29:57.197Z,9.43
2022-12-26T00:34:57.933Z,9.38
2022-12-26T00:39:58.943Z,9.36
2022-12-26T00:44:59.868Z,9.38
2022-12-26T00:50:12.389Z,9.44
2022-12-26T00:55:16.089Z,9.40
2022-12-26T01:00:16.986Z,9.35
2022-12-26T01:05:18.447Z,9.37
2022-12-26T01:10:19.342Z,9.26
2022-12-26T01:15:20.138Z,9.29
2022-12-26T01:20:21.050Z,9.30
2022-12-26T01:25:22.878Z,9.41
2022-12-26T01:30:23.681Z,9.39
2022-12-26T01:35:24.499Z,9.34
2022-12-26T01:40:25.685Z,9.37
2022-12-26T01:45:31.561Z,9.31
2022-12-26T01:50:43.920Z,9.33
2022-12-26T01:55:49.159Z,9.33
2022-12-26T02:00:50.823Z,9.28
2022-12-26T02:05:57.110Z,9.27
2022-12-26T02:11:35.677Z,9.27
2022-12-26T02:16:38.404Z,9.26
2022-12-26T02:28:21.718Z,9.24
2022-12-26T02:37:21.657Z,9.26
2022-12-26T02:44:30.595Z,9.33
2022-12-26T02:50:34.105Z,9.35
2022-12-26T02:55:58.936Z,9.40
2022-12-26T03:01:25.515Z,9.43
2022-12-26T03:06:51.235Z,9.44
2022-12-26T03:12:22.907Z,9.52
2022-12-26T03:17:53.478Z,9.52
2022-12-26T03:22:59.072Z,9.49
2022-12-26T03:27:59.936Z,9.63
2022-12-26T03:33:00.854Z,9.64
2022-12-26T03:38:13.676Z,9.60
2022-12-26T03:44:08.511Z,9.55
2022-12-26T03:49:40.588Z,9.58
2022-12-26T03:55:33.908Z,9.56
2022-12-26T04:00:57.407Z,9.39
2022-12-26T04:06:21.699Z,9.34
2022-12-26T04:12:44.705Z,9.31
2022-12-26T04:18:11.554Z,9.29
2022-12-26T04:23:39.472Z,9.27
2022-12-26T04:28:58.921Z,9.33
2022-12-26T04:34:26.038Z,9.32
2022-12-26T04:39:48.933Z,9.30
2022-12-26T04:44:50.164Z,9.36
2022-12-26T04:50:09.385Z,9.34
2022-12-26T04:55:10.184Z,9.43
2022-12-26T05:00:12.049Z,9.44
2022-12-26T05:05:31.794Z,9.53
2022-12-26T05:10:32.553Z,9.48
2022-12-26T05:28:41.319Z,9.41
2022-12-26T05:34:01.078Z,9.39
2022-12-26T05:39:03.233Z,9.37
2022-12-26T05:44:05.249Z,9.40
2022-12-26T05:49:06.333Z,9.38
2022-12-26T05:54:07.173Z,9.36
2022-12-26T05:59:08.654Z,9.38
2022-12-26T06:04:09.403Z,9.32
2022-12-26T06:09:10.648Z,9.40
2022-12-26T06:14:12.292Z,9.42
2022-12-26T06:19:13.078Z,9.43
2022-12-26T06:24:13.994Z,9.48
2022-12-26T06:29:14.891Z,9.50
2022-12-26T06:34:17.583Z,9.42
2022-12-26T06:39:18.538Z,9.40
2022-12-26T06:44:19.495Z,9.36
2022-12-26T06:49:20.340Z,9.40
2022-12-26T06:54:21.197Z,9.26
2022-12-26T06:59:22.095Z,9.19
2022-12-26T07:04:22.915Z,9.15
2022-12-26T07:09:27.104Z,9.15
2022-12-26T07:14:32.375Z,9.04
2022-12-26T07:19:33.110Z,8.94
2022-12-26T07:24:33.880Z,8.92
2022-12-26T07:29:35.336Z,8.86
2022-12-26T07:34:36.476Z,8.82
2022-12-26T07:39:37.557Z,8.81
2022-12-26T07:44:38.714Z,8.73
2022-12-26T07:49:39.448Z,8.68
2022-12-26T07:54:40.231Z,8.70
2022-12-26T07:59:40.984Z,8.70
2022-12-26T08:04:41.980Z,8.64
2022-12-26T08:09:44.436Z,8.63
2022-12-26T08:14:45.267Z,8.60
2022-12-26T08:19:46.041Z,8.63
2022-12-26T08:24:46.879Z,8.56
2022-12-26T08:29:48.153Z,8.51
2022-12-26T08:34:48.963Z,8.48
2022-12-26T08:39:53.300Z,8.45
2022-12-26T08:44:54.003Z,8.46
2022-12-26T08:49:54.779Z,8.48
2022-12-26T08:54:55.505Z,8.49
2022-12-26T08:59:56.296Z,8.65
2022-12-26T09:04:57.097Z,8.65
2022-12-26T09:09:57.947Z,8.55
2022-12-26T09:14:58.683Z,8.63
2022-12-26T09:19:59.461Z,8.67
2022-12-26T09:25:00.182Z,8.74
2022-12-26T09:30:01.273Z,8.76
2022-12-26T09:35:02.362Z,8.71
2022-12-26T09:40:05.453Z,8.67
2022-12-26T09:45:14.330Z,8.67
2022-12-26T09:51:15.973Z,8.56
2022-12-26T09:57:01.336Z,8.48
2022-12-26T10:02:03.850Z,8.48
2022-12-26T10:07:37.384Z,8.54
2022-12-26T10:13:10.699Z,8.65
2022-12-26T10:20:59.204Z,8.75
2022-12-26T10:26:50.495Z,8.79
2022-12-26T10:31:59.160Z,8.83
2022-12-26T10:37:06.370Z,8.87
2022-12-26T10:42:42.720Z,8.95
2022-12-26T10:47:47.280Z,8.98
2022-12-26T10:52:49.025Z,9.11
2022-12-26T10:57:52.571Z,9.09
2022-12-26T11:03:14.669Z,9.22
2022-12-26T11:08:30.083Z,9.39
2022-12-26T11:13:37.027Z,9.44
2022-12-26T11:18:47.498Z,9.36
2022-12-26T11:23:51.693Z,9.29
2022-12-26T11:29:14.056Z,9.37
2022-12-26T11:34:21.774Z,9.40
2022-12-26T11:39:26.614Z,9.37
2022-12-26T11:44:33.212Z,9.41
2022-12-26T11:49:38.910Z,9.53
2022-12-26T11:54:50.530Z,9.48
2022-12-26T11:59:52.892Z,9.55
2022-12-26T12:05:06.152Z,9.53
2022-12-26T12:11:59.164Z,9.50
2022-12-26T12:19:44.729Z,9.51
2022-12-26T12:25:20.284Z,9.44
2022-12-26T12:30:34.825Z,9.44
2022-12-26T12:37:34.783Z,9.40
2022-12-26T12:42:51.606Z,9.40
2022-12-26T12:48:24.027Z,9.33
2022-12-26T12:56:15.210Z,9.28
2022-12-26T13:01:25.837Z,9.31
2022-12-26T13:07:45.117Z,9.33
2022-12-26T13:12:49.851Z,9.33
2022-12-26T13:18:38.842Z,9.35
2022-12-26T13:24:14.825Z,9.36
2022-12-26T13:30:03.122Z,9.32
2022-12-26T13:35:04.797Z,9.07
2022-12-26T13:40:18.397Z,8.84
2022-12-26T13:52:50.880Z,8.85
2022-12-26T13:58:15.434Z,8.81
2022-12-26T14:03:31.776Z,8.76
2022-12-26T14:11:52.241Z,8.78
2022-12-26T14:20:10.007Z,8.87
2022-12-26T14:25:51.017Z,8.96
2022-12-26T14:31:17.237Z,8.77
2022-12-26T14:36:43.553Z,8.01
2022-12-26T14:42:41.647Z,7.65
2022-12-26T14:47:48.327Z,7.46
2022-12-26T14:52:49.641Z,7.21
2022-12-26T14:57:53.590Z,7.09
2022-12-26T15:03:46.631Z,7.08
2022-12-26T15:13:02.888Z,7.02
2022-12-26T15:18:45.338Z,6.84
2022-12-26T15:27:04.369Z,6.75
2022-12-26T15:34:57.516Z,6.60
2022-12-26T15:40:23.087Z,6.53
2022-12-26T15:50:17.791Z,6.49
2022-12-26T15:58:09.277Z,6.47
2022-12-26T16:03:36.525Z,6.31
2022-12-26T16:08:57.257Z,6.20
2022-12-26T16:14:00.841Z,6.10
2022-12-26T16:19:25.864Z,6.09
2022-12-26T16:24:27.102Z,6.04
2022-12-26T16:29:30.053Z,5.98
2022-12-26T16:34:35.074Z,5.90
2022-12-26T16:39:35.819Z,5.81
2022-12-26T16:44:39.240Z,5.68
2022-12-26T16:49:42.592Z,5.66
2022-12-26T16:54:43.847Z,5.62
2022-12-26T16:59:54.736Z,5.67
2022-12-26T17:05:02.892Z,5.68
2022-12-26T17:10:07.060Z,5.66
2022-12-26T17:15:20.788Z,5.73
2022-12-26T17:20:35.352Z,5.77
2022-12-26T17:25:36.080Z,5.73
2022-12-26T17:30:43.640Z,5.61
2022-12-26T17:36:45.014Z,5.62
2022-12-26T17:41:58.864Z,5.62
2022-12-26T17:47:27.647Z,5.62
2022-12-26T17:52:29.157Z,5.62
2022-12-26T17:57:30.169Z,5.68
2022-12-26T18:02:31.485Z,5.74
2022-12-26T18:07:32.528Z,5.80
2022-12-26T18:12:33.321Z,5.73
2022-12-26T18:17:34.479Z,5.72
2022-12-26T18:22:35.423Z,5.70
2022-12-26T18:27:36.214Z,5.75
2022-12-26T18:32:37.023Z,5.66
2022-12-26T18:37:38.101Z,5.60
2022-12-26T18:42:38.885Z,5.69
2022-12-26T18:47:39.639Z,5.61
2022-12-26T18:52:41.452Z,5.68
2022-12-26T18:57:42.245Z,5.56
2022-12-26T19:02:44.383Z,5.37
2022-12-26T19:07:47.435Z,5.20
2022-12-26T19:12:48.874Z,4.95
2022-12-26T19:17:49.622Z,4.80
2022-12-26T19:22:52.403Z,4.72
2022-12-26T19:27:54.242Z,4.73
2022-12-26T19:32:54.968Z,4.71
2022-12-26T19:37:57.356Z,4.58
2022-12-26T19:42:58.100Z,4.64
2022-12-26T19:47:58.904Z,4.47
2022-12-26T19:52:59.752Z,4.43
2022-12-26T19:58:00.806Z,4.22
2022-12-26T20:03:01.651Z,4.16
2022-12-26T20:08:02.587Z,4.10
2022-12-26T20:13:03.435Z,4.04
2022-12-26T20:18:04.275Z,3.92
2022-12-26T20:23:05.146Z,4.00
2022-12-26T20:28:05.946Z,3.90
2022-12-26T20:33:06.723Z,3.76
2022-12-26T20:38:07.561Z,3.66
2022-12-26T20:43:08.299Z,3.66
2022-12-26T20:48:09.095Z,3.52
2022-12-26T20:53:09.927Z,3.43
2022-12-26T20:58:10.754Z,3.44
2022-12-26T21:03:12.239Z,3.34
2022-12-26T21:08:13.261Z,3.25
2022-12-26T21:13:14.647Z,3.15
2022-12-26T21:18:15.427Z,3.14
2022-12-26T21:23:16.282Z,3.02
2022-12-26T21:28:17.301Z,2.98
2022-12-26T21:33:18.171Z,2.93
2022-12-26T21:38:26.189Z,2.95
2022-12-26T21:43:29.685Z,2.82
2022-12-26T21:48:30.486Z,2.85
2022-12-26T21:53:31.592Z,2.75
2022-12-26T21:59:55.114Z,2.68
2022-12-26T22:04:55.948Z,2.70
2022-12-26T22:09:57.285Z,2.66
2022-12-26T22:14:58.075Z,2.56
2022-12-26T22:19:58.850Z,2.42
2022-12-26T22:24:59.690Z,2.38
2022-12-26T22:30:00.902Z,2.33
2022-12-26T22:35:02.137Z,2.25
2022-12-26T22:40:04.700Z,2.20
2022-12-26T22:45:06.543Z,2.26
2022-12-26T22:50:10.187Z,2.22
2022-12-26T22:55:12.321Z,2.34
2022-12-26T23:00:14.015Z,2.30
2022-12-26T23:05:15.250Z,2.17
2022-12-26T23:10:21.707Z,2.20
2022-12-26T23:15:25.591Z,2.24
2022-12-26T23:20:49.159Z,2.24
2022-12-26T23:25:50.076Z,2.32
2022-12-26T23:30:50.911Z,2.30
2022-12-26T23:35:51.694Z,2.28
2022-12-26T23:40:52.871Z,2.37
2022-12-26T23:45:53.824Z,2.26
2022-12-26T23:51:02.225Z,2.37
2022-12-26T23:56:06.626Z,2.46
